createdAt,value
2019-02-22T00:02:28.398Z,95.29
2019-02-22T00:04:58.264Z,95.07
2019-02-22T00:07:28.651Z,94.82
2019-02-22T00:09:58.527Z,94.65
2019-02-22T00:12:28.414Z,94.45
2019-02-22T00:14:58.324Z,94.31
2019-02-22T00:17:28.534Z,94.36
2019-02-22T00:19:58.461Z,94.08
2019-02-22T00:22:28.581Z,94.29
2019-02-22T00:24:58.468Z,94.26
2019-02-22T00:27:28.319Z,94.20
2019-02-22T00:29:58.165Z,94.16
2019-02-22T00:32:28.308Z,94.37
2019-02-22T00:34:58.174Z,94.47
2019-02-22T00:37:28.299Z,94.59
2019-02-22T00:43:27.370Z,94.40
2019-02-22T00:45:57.338Z,94.14
2019-02-22T00:48:28.043Z,93.98
2019-02-22T00:50:58.531Z,93.83
2019-02-22T00:53:29.418Z,93.54
2019-02-22T00:55:59.855Z,93.44
2019-02-22T00:58:30.307Z,93.44
2019-02-22T01:01:00.753Z,93.29
2019-02-22T01:03:30.689Z,93.37
2019-02-22T01:06:00.620Z,93.57
2019-02-22T01:08:31.257Z,93.67
2019-02-22T01:11:01.191Z,93.73
2019-02-22T01:13:31.351Z,93.69
2019-02-22T01:16:01.309Z,93.64
2019-02-22T01:18:31.718Z,93.67
2019-02-22T01:21:01.925Z,93.87
2019-02-22T01:23:31.893Z,93.93
2019-02-22T01:26:02.459Z,93.98
2019-02-22T01:28:32.865Z,94.06
2019-02-22T01:31:03.036Z,94.14
2019-02-22T01:33:32.951Z,94.18
2019-02-22T01:36:03.101Z,94.34
2019-02-22T01:38:33.560Z,94.42
2019-02-22T01:41:03.969Z,94.54
2019-02-22T01:43:33.883Z,94.59
2019-02-22T01:46:04.036Z,94.83
2019-02-22T01:48:34.724Z,94.99
2019-02-22T01:51:04.950Z,95.25
2019-02-22T01:53:34.963Z,95.82
2019-02-22T01:56:05.210Z,96.41
2019-02-22T01:58:35.648Z,96.88
2019-02-22T02:01:06.164Z,97.17
2019-02-22T02:03:36.679Z,97.15
2019-02-22T02:06:07.739Z,97.16
2019-02-22T02:08:37.705Z,97.21
2019-02-22T02:11:07.735Z,97.14
2019-02-22T02:13:37.627Z,96.86
2019-02-22T02:16:08.060Z,96.58
2019-02-22T02:18:38.784Z,96.26
2019-02-22T02:21:08.943Z,95.96
2019-02-22T02:23:38.880Z,95.74
2019-02-22T02:26:09.283Z,95.46
2019-02-22T02:28:40.207Z,95.20
2019-02-22T02:31:10.375Z,95.14
2019-02-22T02:33:41.339Z,94.87
2019-02-22T02:36:12.302Z,94.81
2019-02-22T02:38:43.452Z,94.83
2019-02-22T02:41:14.085Z,94.74
2019-02-22T02:43:44.081Z,94.74
2019-02-22T02:46:14.109Z,94.88
2019-02-22T02:48:45.028Z,94.85
2019-02-22T02:51:15.774Z,94.78
2019-02-22T02:53:46.307Z,94.59
2019-02-22T02:56:16.478Z,94.79
2019-02-22T02:58:46.414Z,95.18
2019-02-22T03:01:16.975Z,95.41
2019-02-22T03:03:47.455Z,95.64
2019-02-22T03:06:34.496Z,95.92
2019-02-22T03:09:05.095Z,96.14
2019-02-22T03:11:35.807Z,96.36
2019-02-22T03:14:06.365Z,96.63
2019-02-22T03:16:36.304Z,96.66
2019-02-22T03:19:06.264Z,96.84
2019-02-22T03:21:36.735Z,96.83
2019-02-22T03:24:07.444Z,96.73
2019-02-22T03:26:37.378Z,96.74
2019-02-22T03:29:08.064Z,96.52
2019-02-22T03:31:37.993Z,96.05
2019-02-22T03:34:08.755Z,95.86
2019-02-22T03:36:39.209Z,95.28
2019-02-22T03:39:09.207Z,95.24
2019-02-22T03:41:39.624Z,95.40
2019-02-22T03:44:10.060Z,95.70
2019-02-22T03:46:40.505Z,96.08
2019-02-22T03:49:10.719Z,96.38
2019-02-22T03:51:41.192Z,96.57
2019-02-22T03:54:11.908Z,96.61
2019-02-22T03:56:41.935Z,96.40
2019-02-22T03:59:12.208Z,96.23
2019-02-22T04:01:42.697Z,96.04
2019-02-22T04:04:13.567Z,95.98
2019-02-22T04:06:43.965Z,95.59
2019-02-22T04:09:14.020Z,95.35
2019-02-22T04:11:45.964Z,95.28
2019-02-22T04:14:16.750Z,95.33
2019-02-22T04:16:46.666Z,95.38
2019-02-22T04:19:17.164Z,95.23
2019-02-22T04:21:47.911Z,95.28
2019-02-22T04:24:18.405Z,95.13
2019-02-22T04:26:48.887Z,94.74
2019-02-22T04:29:19.387Z,94.22
2019-02-22T04:31:50.035Z,93.70
2019-02-22T04:34:20.732Z,93.15
2019-02-22T04:36:50.690Z,92.36
2019-02-22T04:39:20.859Z,92.01
2019-02-22T04:41:58.047Z,91.67
2019-02-22T04:44:22.952Z,91.42
2019-02-22T04:46:53.090Z,91.27
2019-02-22T04:49:23.534Z,90.86
2019-02-22T04:51:54.576Z,90.78
2019-02-22T04:54:25.260Z,90.61
2019-02-22T04:56:55.438Z,90.22
2019-02-22T04:59:26.171Z,90.10
2019-02-22T05:01:56.633Z,89.64
2019-02-22T05:08:13.327Z,89.13
2019-02-22T05:10:43.727Z,88.82
2019-02-22T05:13:13.679Z,88.85
2019-02-22T05:15:43.603Z,88.65
2019-02-22T05:18:13.717Z,88.39
2019-02-22T05:20:43.600Z,88.46
2019-02-22T05:23:13.482Z,88.66
2019-02-22T05:25:43.365Z,88.36
2019-02-22T05:28:13.494Z,88.47
2019-02-22T05:30:43.426Z,88.68
2019-02-22T05:33:16.568Z,88.82
2019-02-22T05:35:46.464Z,89.13
2019-02-22T05:38:16.470Z,89.06
2019-02-22T05:40:46.352Z,89.27
2019-02-22T05:43:16.339Z,89.51
2019-02-22T05:45:46.284Z,89.53
2019-02-22T05:48:16.184Z,89.80
2019-02-22T05:50:46.055Z,89.99
2019-02-22T05:53:15.970Z,90.01
2019-02-22T05:55:46.348Z,89.65
2019-02-22T05:58:16.220Z,89.83
2019-02-22T06:00:46.360Z,89.86
2019-02-22T06:03:16.208Z,90.50
2019-02-22T06:05:46.104Z,90.69
2019-02-22T06:08:15.987Z,91.14
2019-02-22T06:10:45.847Z,91.73
2019-02-22T06:13:15.719Z,92.04
2019-02-22T06:15:45.564Z,92.04
2019-02-22T06:18:15.427Z,92.11
2019-02-22T06:20:45.531Z,92.19
2019-02-22T06:23:15.641Z,92.29
2019-02-22T06:25:45.489Z,92.15
2019-02-22T06:28:15.314Z,92.25
2019-02-22T06:30:45.775Z,92.09
2019-02-22T06:33:15.634Z,92.46
2019-02-22T06:35:45.493Z,92.33
2019-02-22T06:38:15.345Z,92.37
2019-02-22T06:40:48.006Z,92.21
2019-02-22T06:43:16.966Z,92.36
2019-02-22T06:45:46.846Z,91.78
2019-02-22T06:48:16.943Z,90.25
2019-02-22T06:50:46.803Z,89.52
2019-02-22T06:53:16.920Z,88.48
2019-02-22T06:55:47.039Z,87.58
2019-02-22T06:58:16.926Z,86.86
2019-02-22T07:00:47.011Z,86.02
2019-02-22T07:03:17.113Z,85.61
2019-02-22T07:05:46.994Z,85.25
2019-02-22T07:08:16.870Z,84.96
2019-02-22T07:11:08.314Z,84.97
2019-02-22T07:13:38.420Z,84.90
2019-02-22T07:16:08.259Z,84.98
2019-02-22T07:18:38.399Z,85.33
2019-02-22T07:21:08.239Z,85.07
2019-02-22T07:23:38.107Z,84.34
2019-02-22T07:26:07.957Z,84.41
2019-02-22T07:28:38.018Z,85.19
2019-02-22T07:31:07.844Z,85.87
2019-02-22T07:33:37.913Z,86.66
2019-02-22T07:36:07.873Z,85.85
2019-02-22T07:38:37.703Z,84.40
2019-02-22T07:41:07.972Z,81.42
2019-02-22T07:43:37.875Z,81.29
2019-02-22T07:46:07.714Z,81.47
2019-02-22T07:48:37.541Z,81.77
2019-02-22T07:51:07.423Z,81.02
2019-02-22T07:53:37.264Z,80.98
2019-02-22T07:56:07.087Z,80.47
2019-02-22T07:58:36.950Z,79.80
2019-02-22T08:01:06.808Z,79.38
2019-02-22T08:03:37.481Z,78.27
2019-02-22T08:06:07.373Z,78.26
2019-02-22T08:08:37.237Z,78.10
2019-02-22T08:11:07.448Z,78.32
2019-02-22T08:13:37.446Z,77.78
2019-02-22T08:16:07.289Z,77.92
2019-02-22T08:18:37.389Z,78.24
2019-02-22T08:21:07.211Z,78.58
2019-02-22T08:23:37.048Z,79.43
2019-02-22T08:26:07.365Z,79.92
2019-02-22T08:28:37.458Z,80.15
2019-02-22T08:31:07.326Z,80.62
2019-02-22T08:33:37.137Z,80.95
2019-02-22T08:36:07.150Z,81.17
2019-02-22T08:38:37.444Z,80.87
2019-02-22T08:41:07.561Z,81.71
2019-02-22T08:43:37.657Z,82.80
2019-02-22T08:46:07.953Z,82.03
2019-02-22T08:48:37.824Z,82.01
2019-02-22T08:51:07.648Z,82.21
2019-02-22T08:53:37.748Z,81.35
2019-02-22T08:56:08.096Z,81.02
2019-02-22T08:58:37.935Z,80.40
2019-02-22T09:01:07.788Z,80.83
2019-02-22T09:03:49.373Z,80.64
2019-02-22T09:06:09.222Z,80.66
2019-02-22T09:08:39.341Z,80.98
2019-02-22T09:11:09.329Z,80.94
2019-02-22T09:13:43.465Z,80.71
2019-02-22T09:16:10.983Z,80.67
2019-02-22T09:18:40.822Z,80.11
2019-02-22T09:21:10.950Z,79.78
2019-02-22T09:23:41.040Z,80.05
2019-02-22T09:26:11.198Z,80.18
2019-02-22T09:28:41.015Z,80.10
2019-02-22T09:31:10.861Z,80.05
2019-02-22T09:33:40.706Z,79.69
2019-02-22T09:36:10.844Z,79.48
2019-02-22T09:38:40.711Z,79.91
2019-02-22T09:41:10.581Z,80.18
2019-02-22T09:43:40.703Z,79.83
2019-02-22T09:46:10.543Z,79.45
2019-02-22T09:48:40.934Z,78.50
2019-02-22T09:51:10.794Z,78.68
2019-02-22T09:53:40.659Z,78.73
2019-02-22T09:56:10.759Z,78.81
2019-02-22T09:58:40.610Z,78.78
2019-02-22T10:01:10.971Z,79.44
2019-02-22T10:03:40.842Z,78.73
2019-02-22T10:06:10.925Z,79.18
2019-02-22T10:08:40.798Z,78.95
2019-02-22T10:11:10.924Z,79.15
2019-02-22T10:13:40.802Z,78.84
2019-02-22T10:16:10.670Z,78.24
2019-02-22T10:18:40.852Z,78.71
2019-02-22T10:21:10.992Z,78.53
2019-02-22T10:23:40.820Z,78.32
2019-02-22T10:26:10.959Z,78.58
2019-02-22T10:28:40.874Z,78.60
2019-02-22T10:31:10.736Z,77.82
2019-02-22T10:33:40.580Z,78.37
2019-02-22T10:36:10.444Z,78.75
2019-02-22T10:38:40.332Z,79.26
2019-02-22T10:41:10.393Z,78.62
2019-02-22T10:43:40.334Z,78.25
2019-02-22T10:46:10.205Z,78.11
2019-02-22T10:48:40.021Z,77.80
2019-02-22T10:51:09.917Z,77.32
2019-02-22T10:53:39.744Z,77.72
2019-02-22T10:56:09.571Z,78.12
2019-02-22T10:58:39.402Z,77.36
2019-02-22T11:01:09.545Z,77.49
2019-02-22T11:03:40.221Z,76.40
2019-02-22T11:06:10.096Z,76.00
2019-02-22T11:08:40.176Z,75.42
2019-02-22T11:11:10.095Z,74.89
2019-02-22T11:13:39.964Z,73.75
2019-02-22T11:16:09.891Z,73.48
2019-02-22T11:18:39.730Z,73.07
2019-02-22T11:21:09.869Z,72.38
2019-02-22T11:23:39.741Z,72.36
2019-02-22T11:26:10.314Z,72.17
2019-02-22T11:28:40.397Z,71.36
2019-02-22T11:31:10.636Z,70.75
2019-02-22T11:33:40.466Z,71.09
2019-02-22T11:36:10.792Z,70.53
2019-02-22T11:38:40.659Z,70.99
2019-02-22T11:41:10.573Z,70.41
2019-02-22T11:43:40.689Z,69.77
2019-02-22T11:46:10.788Z,69.83
2019-02-22T11:48:40.692Z,68.61
2019-02-22T11:51:10.557Z,68.42
2019-02-22T11:53:40.678Z,67.86
2019-02-22T11:56:10.538Z,66.24
2019-02-22T11:58:40.380Z,66.87
2019-02-22T12:01:10.994Z,67.03
2019-02-22T12:03:40.912Z,67.41
2019-02-22T12:06:10.831Z,67.26
2019-02-22T12:08:40.677Z,67.25
2019-02-22T12:11:10.611Z,66.99
2019-02-22T12:13:40.674Z,65.89
2019-02-22T12:16:10.838Z,65.35
2019-02-22T12:18:40.771Z,65.84
2019-02-22T12:21:10.624Z,65.40
2019-02-22T12:23:40.675Z,64.62
2019-02-22T12:26:10.586Z,63.96
2019-02-22T12:28:40.569Z,64.18
2019-02-22T12:31:10.746Z,63.37
2019-02-22T12:33:40.627Z,62.21
2019-02-22T12:36:11.031Z,63.24
2019-02-22T12:38:40.893Z,63.32
2019-02-22T12:41:11.067Z,62.88
2019-02-22T12:43:40.912Z,63.94
2019-02-22T12:46:10.775Z,63.14
2019-02-22T12:48:40.691Z,62.24
2019-02-22T12:51:10.535Z,59.59
2019-02-22T12:53:40.355Z,58.31
2019-02-22T12:56:10.774Z,58.19
2019-02-22T12:58:40.595Z,57.54
2019-02-22T13:01:10.575Z,56.90
2019-02-22T13:03:40.513Z,58.55
2019-02-22T13:06:10.443Z,58.05
2019-02-22T13:08:40.295Z,58.06
2019-02-22T13:11:10.191Z,57.76
2019-02-22T13:13:40.387Z,57.67
2019-02-22T13:16:10.256Z,58.01
2019-02-22T13:18:40.128Z,59.10
2019-02-22T13:21:10.217Z,56.73
2019-02-22T13:23:40.616Z,56.33
2019-02-22T13:26:10.736Z,57.82
2019-02-22T13:28:40.588Z,56.54
2019-02-22T13:31:10.485Z,56.97
2019-02-22T13:33:40.488Z,56.06
2019-02-22T13:36:10.415Z,55.44
2019-02-22T13:38:40.287Z,55.10
2019-02-22T13:41:10.234Z,55.55
2019-02-22T13:43:40.172Z,54.24
2019-02-22T13:46:10.005Z,54.28
2019-02-22T13:48:41.799Z,54.45
2019-02-22T13:51:11.485Z,52.94
2019-02-22T13:53:41.558Z,52.34
2019-02-22T13:56:11.434Z,52.12
2019-02-22T13:58:41.312Z,52.70
2019-02-22T14:01:11.463Z,52.73
2019-02-22T14:03:41.279Z,51.97
2019-02-22T14:06:11.091Z,52.81
2019-02-22T14:08:42.505Z,52.53
2019-02-22T14:11:12.480Z,51.20
2019-02-22T14:13:42.359Z,51.62
2019-02-22T14:16:12.233Z,52.69
2019-02-22T14:18:42.222Z,54.24
2019-02-22T14:21:12.075Z,54.86
2019-02-22T14:23:41.960Z,55.70
2019-02-22T14:26:11.813Z,63.25
2019-02-22T14:28:41.705Z,57.50
2019-02-22T14:31:11.824Z,56.05
2019-02-22T14:33:41.689Z,55.77
2019-02-22T14:36:11.666Z,56.65
2019-02-22T14:38:41.841Z,56.06
2019-02-22T14:41:11.678Z,55.97
2019-02-22T14:43:41.534Z,55.53
2019-02-22T14:46:11.614Z,54.90
2019-02-22T14:48:41.439Z,54.99
2019-02-22T14:51:11.298Z,54.87
2019-02-22T14:53:41.137Z,55.36
2019-02-22T14:56:11.051Z,56.15
2019-02-22T14:58:43.351Z,57.67
2019-02-22T15:01:12.518Z,58.51
2019-02-22T15:03:42.417Z,57.84
2019-02-22T15:06:12.254Z,57.16
2019-02-22T15:08:42.317Z,57.65
2019-02-22T15:11:12.892Z,58.25
2019-02-22T15:13:42.758Z,58.32
2019-02-22T15:16:22.010Z,57.07
2019-02-22T15:18:51.917Z,57.50
2019-02-22T15:21:21.772Z,57.29
2019-02-22T15:23:51.598Z,56.30
2019-02-22T15:26:21.698Z,56.73
2019-02-22T15:28:51.557Z,56.99
2019-02-22T15:31:21.406Z,56.96
2019-02-22T15:33:51.275Z,56.60
2019-02-22T15:36:21.135Z,56.21
2019-02-22T15:38:51.241Z,55.20
2019-02-22T15:41:21.108Z,54.32
2019-02-22T15:43:50.949Z,55.05
2019-02-22T15:46:21.007Z,54.90
2019-02-22T15:48:50.884Z,54.69
2019-02-22T15:51:21.019Z,54.89
2019-02-22T15:53:51.112Z,54.97
2019-02-22T15:56:21.203Z,54.64
2019-02-22T15:58:51.317Z,54.62
2019-02-22T16:01:23.495Z,55.01
2019-02-22T16:04:10.390Z,55.99
2019-02-22T16:06:40.219Z,56.78
2019-02-22T16:09:10.159Z,56.97
2019-02-22T16:11:39.994Z,57.93
2019-02-22T16:14:09.876Z,58.58
2019-02-22T16:16:39.725Z,58.74
2019-02-22T16:19:09.577Z,58.80
2019-02-22T16:21:39.673Z,59.02
2019-02-22T16:24:09.549Z,59.15
2019-02-22T16:26:39.359Z,59.20
2019-02-22T16:29:09.439Z,59.39
2019-02-22T16:31:39.546Z,73.69
2019-02-22T16:34:09.659Z,63.42
2019-02-22T16:36:39.506Z,56.95
2019-02-22T16:39:09.593Z,58.23
2019-02-22T16:41:39.433Z,59.70
2019-02-22T16:44:09.534Z,60.51
2019-02-22T16:46:39.377Z,61.09
2019-02-22T16:49:09.225Z,62.37
2019-02-22T16:51:39.108Z,64.56
2019-02-22T16:54:08.962Z,64.42
2019-02-22T16:56:39.024Z,65.21
2019-02-22T16:59:09.112Z,65.69
2019-02-22T17:01:39.082Z,66.64
2019-02-22T17:04:08.950Z,66.59
2019-02-22T17:06:39.078Z,66.84
2019-02-22T17:09:09.629Z,67.35
2019-02-22T17:11:39.474Z,68.84
2019-02-22T17:14:09.570Z,69.94
2019-02-22T17:16:45.885Z,70.80
2019-02-22T17:19:11.451Z,71.61
2019-02-22T17:21:41.546Z,71.87
2019-02-22T17:24:11.728Z,71.39
2019-02-22T17:26:41.559Z,70.57
2019-02-22T17:29:11.728Z,70.51
2019-02-22T17:31:41.616Z,70.41
2019-02-22T17:34:11.533Z,70.52
2019-02-22T17:36:41.616Z,70.40
2019-02-22T17:39:11.535Z,71.28
2019-02-22T17:41:42.851Z,71.33
2019-02-22T17:44:12.873Z,71.18
2019-02-22T17:46:43.012Z,71.09
2019-02-22T17:49:13.233Z,71.04
2019-02-22T17:51:43.091Z,71.11
2019-02-22T17:54:13.217Z,71.57
2019-02-22T17:56:43.564Z,71.84
2019-02-22T17:59:13.790Z,71.91
2019-02-22T18:01:44.348Z,72.05
2019-02-22T18:04:14.304Z,72.31
2019-02-22T18:06:45.227Z,72.22
2019-02-22T18:09:15.230Z,72.93
2019-02-22T18:11:45.133Z,73.06
2019-02-22T18:14:15.022Z,73.22
2019-02-22T18:16:44.903Z,73.41
2019-02-22T18:19:15.000Z,73.81
2019-02-22T18:21:44.885Z,73.56
2019-02-22T18:24:14.745Z,73.01
2019-02-22T18:26:44.850Z,69.57
2019-02-22T18:29:14.721Z,66.54
2019-02-22T18:31:44.614Z,64.39
2019-02-22T18:34:14.453Z,62.03
2019-02-22T18:36:45.113Z,62.28
2019-02-22T18:39:15.004Z,63.16
2019-02-22T18:41:44.830Z,64.23
2019-02-22T18:44:14.762Z,64.79
2019-02-22T18:46:44.629Z,65.32
2019-02-22T18:49:14.738Z,65.65
2019-02-22T18:51:44.575Z,65.78
2019-02-22T18:54:14.681Z,66.25
2019-02-22T18:56:44.580Z,66.95
2019-02-22T18:59:14.426Z,67.83
2019-02-22T19:01:44.306Z,68.23
2019-02-22T19:04:14.184Z,68.77
2019-02-22T19:06:44.255Z,69.26
2019-02-22T19:09:14.156Z,69.89
2019-02-22T19:11:44.294Z,70.61
2019-02-22T19:14:14.549Z,70.70
2019-02-22T19:16:44.730Z,70.90
2019-02-22T19:19:14.752Z,71.68
2019-02-22T19:21:44.670Z,71.84
2019-02-22T19:24:14.575Z,72.35
2019-02-22T19:26:44.454Z,73.52
2019-02-22T19:29:14.348Z,74.20
2019-02-22T19:31:44.280Z,74.59
2019-02-22T19:34:14.423Z,74.68
2019-02-22T19:36:44.412Z,74.99
2019-02-22T19:39:14.343Z,75.27
2019-02-22T19:41:44.229Z,75.57
2019-02-22T19:44:14.424Z,76.31
2019-02-22T19:46:44.572Z,76.98
2019-02-22T19:49:14.777Z,77.51
2019-02-22T19:51:44.633Z,77.49
2019-02-22T19:54:14.535Z,77.90
2019-02-22T19:56:44.681Z,78.12
2019-02-22T19:59:14.519Z,78.32
2019-02-22T20:01:45.094Z,78.54
2019-02-22T20:04:14.959Z,78.68
2019-02-22T20:06:45.124Z,78.97
2019-02-22T20:09:15.077Z,79.26
2019-02-22T20:11:45.328Z,79.58
2019-02-22T20:14:15.289Z,79.67
2019-02-22T20:16:45.169Z,79.72
2019-02-22T20:19:15.065Z,79.70
2019-02-22T20:21:45.244Z,79.95
2019-02-22T20:24:15.144Z,79.92
2019-02-22T20:26:45.505Z,79.99
2019-02-22T20:29:15.454Z,80.11
2019-02-22T20:31:45.643Z,80.02
2019-02-22T20:34:15.828Z,79.92
2019-02-22T20:36:45.941Z,79.56
2019-02-22T20:39:16.333Z,79.32
2019-02-22T20:41:46.506Z,79.06
2019-02-22T20:44:16.347Z,78.83
2019-02-22T20:46:46.272Z,78.70
2019-02-22T20:49:16.147Z,78.33
2019-02-22T20:51:46.412Z,77.88
2019-02-22T20:54:16.247Z,77.71
2019-02-22T20:56:46.135Z,77.76
2019-02-22T20:59:16.268Z,77.82
2019-02-22T21:01:46.379Z,77.78
2019-02-22T21:04:16.226Z,77.72
2019-02-22T21:06:46.137Z,77.69
2019-02-22T21:09:16.315Z,77.91
2019-02-22T21:11:46.477Z,77.90
2019-02-22T21:14:16.371Z,77.97
2019-02-22T21:16:46.244Z,78.12
2019-02-22T21:19:16.398Z,77.80
2019-02-22T21:21:46.301Z,77.50
2019-02-22T21:24:16.841Z,76.55
2019-02-22T21:26:46.999Z,74.51
2019-02-22T21:29:16.843Z,72.44
2019-02-22T21:31:47.053Z,70.85
2019-02-22T21:34:16.978Z,68.92
2019-02-22T21:36:47.100Z,67.62
2019-02-22T21:39:17.102Z,66.54
2019-02-22T21:41:47.248Z,66.33
2019-02-22T21:44:17.120Z,66.38
2019-02-22T21:46:47.071Z,66.43
2019-02-22T21:49:16.970Z,65.65
2019-02-22T21:51:47.124Z,64.90
2019-02-22T21:54:17.007Z,64.50
2019-02-22T21:56:47.143Z,63.13
2019-02-22T21:59:17.258Z,61.66
2019-02-22T22:01:47.401Z,61.96
2019-02-22T22:04:17.513Z,62.17
2019-02-22T22:06:47.385Z,62.26
2019-02-22T22:09:17.352Z,62.24
2019-02-22T22:11:47.202Z,62.71
2019-02-22T22:14:17.347Z,62.91
2019-02-22T22:16:47.544Z,62.72
2019-02-22T22:19:17.968Z,63.04
2019-02-22T22:21:47.897Z,62.93
2019-02-22T22:24:18.268Z,62.66
2019-02-22T22:26:48.168Z,62.18
2019-02-22T22:29:18.057Z,62.08
2019-02-22T22:31:47.920Z,61.56
2019-02-22T22:34:17.885Z,61.10
2019-02-22T22:36:47.796Z,61.02
2019-02-22T22:39:18.188Z,61.05
2019-02-22T22:41:48.587Z,61.16
2019-02-22T22:44:18.763Z,61.31
2019-02-22T22:46:48.662Z,61.53
2019-02-22T22:49:19.030Z,61.53
2019-02-22T22:51:48.969Z,61.77
2019-02-22T22:54:18.896Z,61.60
2019-02-22T22:56:48.779Z,61.83
2019-02-22T22:59:18.700Z,61.91
2019-02-22T23:01:49.307Z,62.31
2019-02-22T23:04:19.574Z,62.67
2019-02-22T23:06:49.483Z,62.61
2019-02-22T23:09:20.861Z,62.75
2019-02-22T23:11:51.159Z,62.83
2019-02-22T23:14:21.034Z,62.75
2019-02-22T23:16:51.022Z,62.97
2019-02-22T23:19:20.918Z,62.98
2019-02-22T23:21:50.799Z,63.10
2019-02-22T23:24:20.699Z,63.37
2019-02-22T23:26:50.844Z,63.60
2019-02-22T23:29:21.272Z,63.73
2019-02-22T23:31:51.155Z,63.58
2019-02-22T23:34:21.800Z,63.49
2019-02-22T23:36:51.713Z,63.64
2019-02-22T23:39:21.893Z,63.77
2019-02-22T23:41:52.044Z,63.68
2019-02-22T23:44:21.874Z,63.56
2019-02-22T23:46:51.980Z,63.61
2019-02-22T23:49:21.902Z,63.76
2019-02-22T23:51:51.761Z,64.04
2019-02-22T23:54:21.887Z,64.39
2019-02-22T23:56:52.403Z,64.48
2019-02-22T23:59:22.311Z,64.90
